Time;durP1;ratioP1;P1;durP2;ratioP2;P2;SDS_P1;SDS_P2;PMS_P1;PMS_P2;Temp;Humidity;BMP_temperature;BMP_pressure;BME280_temperature;BME280_humidity;BME280_pressure;Samples;Min_cycle;Max_cycle;Signal;HPM_P1;HPM_P2
2022/06/14 00:03:09;;;;;;;7.23;2.37;;;18.50;73.70;;;;;;6299761;28;20227;-63
2022/06/14 00:06:20;;;;;;;2.63;2.43;;;18.40;74.00;;;;;;6299606;28;20691;-62
2022/06/14 00:09:24;;;;;;;2.43;2.10;;;18.40;74.60;;;;;;6299684;28;20227;-62
2022/06/14 00:12:28;;;;;;;2.87;2.67;;;18.40;74.70;;;;;;6299142;28;20479;-62
2022/06/14 00:15:31;;;;;;;2.40;2.20;;;18.30;74.80;;;;;;6299349;28;20480;-63
2022/06/14 00:18:34;;;;;;;3.87;2.50;;;18.30;75.10;;;;;;6299429;28;20453;-62
2022/06/14 00:21:38;;;;;;;3.20;2.50;;;18.20;75.30;;;;;;6299444;28;20540;-63
2022/06/14 00:24:42;;;;;;;2.80;2.30;;;18.20;75.60;;;;;;6300054;28;20290;-62
2022/06/14 00:27:45;;;;;;;3.70;2.60;;;18.20;75.70;;;;;;6299813;28;20442;-62
2022/06/14 00:30:52;;;;;;;2.67;2.47;;;18.10;76.10;;;;;;6301431;28;20444;-62
2022/06/14 00:33:55;;;;;;;2.90;2.50;;;18.10;76.70;;;;;;6303673;28;20461;-62
2022/06/14 00:36:59;;;;;;;4.43;2.40;;;18.10;76.90;;;;;;6303634;28;20468;-62
2022/06/14 00:40:05;;;;;;;2.60;2.40;;;18.10;76.80;;;;;;6303633;28;20966;-62
2022/06/14 00:43:16;;;;;;;2.90;2.67;;;18.10;76.70;;;;;;6303264;28;20555;-63
2022/06/14 00:46:23;;;;;;;2.63;2.43;;;18.00;76.90;;;;;;6303320;27;20481;-63
2022/06/14 00:49:32;;;;;;;3.83;2.83;;;17.90;77.30;;;;;;6303429;28;20985;-63
2022/06/14 00:52:40;;;;;;;2.40;2.20;;;17.70;77.40;;;;;;6303321;27;20966;-63
2022/06/14 00:55:49;;;;;;;5.50;2.27;;;17.70;78.20;;;;;;6303607;28;20491;-62
2022/06/14 00:58:58;;;;;;;2.97;2.63;;;17.60;78.40;;;;;;6303495;28;20465;-62
2022/06/14 01:02:12;;;;;;;3.63;2.47;;;17.60;79.00;;;;;;6294547;28;20462;-62
2022/06/14 01:05:20;;;;;;;5.43;2.60;;;17.50;79.30;;;;;;6303314;28;20847;-60
2022/06/14 01:08:24;;;;;;;3.10;2.80;;;17.50;79.70;;;;;;6303045;28;20822;-62
2022/06/14 01:11:42;;;;;;;3.30;2.23;;;17.50;79.70;;;;;;6303183;28;20803;-62
2022/06/14 01:14:52;;;;;;;3.83;2.23;;;17.40;80.70;;;;;;6302986;28;20478;-62
2022/06/14 01:18:02;;;;;;;3.00;2.20;;;17.40;80.00;;;;;;6303001;28;20484;-62
2022/06/14 01:21:05;;;;;;;5.97;3.00;;;17.30;80.20;;;;;;6302838;28;20484;-62
2022/06/14 01:24:10;;;;;;;4.43;2.70;;;17.30;80.60;;;;;;6302988;28;20465;-62
2022/06/14 01:27:17;;;;;;;2.43;2.23;;;17.30;80.90;;;;;;6302929;28;20234;-62
2022/06/14 01:30:25;;;;;;;2.97;2.50;;;17.30;81.20;;;;;;6303112;28;20815;-62
2022/06/14 01:33:33;;;;;;;4.07;2.33;;;17.20;81.10;;;;;;6302294;28;20485;-62
2022/06/14 01:36:40;;;;;;;3.00;2.67;;;17.10;81.70;;;;;;6302961;28;20457;-62
2022/06/14 01:39:45;;;;;;;3.10;2.00;;;17.10;82.10;;;;;;6302545;28;20418;-63
2022/06/14 01:43:15;;;;;;;3.77;2.23;;;17.10;82.10;;;;;;6300747;28;20940;-63
2022/06/14 01:46:24;;;;;;;4.10;2.50;;;16.90;82.50;;;;;;6302628;28;20465;-63
2022/06/14 01:53:13;;;;;;;2.60;2.40;;;16.90;83.60;;;;;;6301773;28;20963;-62
2022/06/14 01:56:27;;;;;;;2.67;2.47;;;16.80;83.80;;;;;;6302462;28;20465;-62
2022/06/14 01:59:37;;;;;;;2.17;2.00;;;16.90;84.30;;;;;;6301863;28;20480;-62
2022/06/14 02:02:51;;;;;;;2.73;2.20;;;16.90;84.10;;;;;;6301942;28;20477;-62
2022/06/14 02:05:57;;;;;;;2.53;2.43;;;16.80;84.10;;;;;;6297497;28;20470;-62
2022/06/14 02:09:06;;;;;;;3.07;2.37;;;16.80;84.40;;;;;;6301695;28;20473;-61
2022/06/14 02:12:19;;;;;;;2.03;1.93;;;16.60;84.60;;;;;;6301425;28;20484;-61
2022/06/14 02:15:30;;;;;;;3.43;2.90;;;16.60;85.20;;;;;;6301671;28;20524;-61
2022/06/14 02:18:38;;;;;;;4.03;2.53;;;16.50;85.30;;;;;;6301639;28;20442;-61
2022/06/14 02:21:44;;;;;;;3.63;2.63;;;16.40;86.20;;;;;;6301438;28;20892;-62
2022/06/14 02:24:51;;;;;;;3.73;2.23;;;16.40;86.40;;;;;;6301426;28;20441;-62
2022/06/14 02:28:02;;;;;;;3.70;3.40;;;16.50;86.70;;;;;;6300933;28;20461;-62
2022/06/14 02:31:09;;;;;;;3.20;3.00;;;16.50;86.80;;;;;;6301220;28;20476;-62
2022/06/14 02:34:15;;;;;;;3.20;2.73;;;16.40;86.50;;;;;;6300557;28;20469;-61
2022/06/14 02:37:27;;;;;;;4.20;2.60;;;16.40;87.70;;;;;;6301660;28;20468;-61
2022/06/14 02:40:34;;;;;;;2.90;2.40;;;16.30;87.30;;;;;;6300599;28;20797;-62
2022/06/14 02:43:42;;;;;;;2.77;2.57;;;16.30;87.60;;;;;;6300810;28;20466;-61
2022/06/14 02:46:54;;;;;;;3.23;2.60;;;16.30;88.10;;;;;;6300545;28;20958;-61
2022/06/14 02:50:01;;;;;;;6.40;2.60;;;16.40;88.30;;;;;;6300764;28;20472;-63
2022/06/14 02:53:11;;;;;;;2.90;2.70;;;16.30;88.60;;;;;;6300087;27;20485;-61
2022/06/14 02:56:19;;;;;;;4.70;3.07;;;16.20;88.00;;;;;;6300566;28;20527;-61
2022/06/14 02:59:30;;;;;;;4.07;2.30;;;16.10;88.10;;;;;;6300388;28;20469;-61
2022/06/14 03:02:39;;;;;;;2.77;2.30;;;16.00;89.30;;;;;;6300353;28;20469;-62
2022/06/14 03:05:47;;;;;;;4.13;3.03;;;16.00;90.20;;;;;;6300312;28;20476;-61
2022/06/14 03:08:56;;;;;;;4.60;2.93;;;15.90;90.20;;;;;;6295727;28;20462;-61
2022/06/14 03:12:09;;;;;;;3.03;2.80;;;15.90;90.30;;;;;;6299919;28;20912;-62
2022/06/14 03:15:23;;;;;;;3.20;3.00;;;16.00;90.40;;;;;;6300379;28;20478;-61
2022/06/14 03:18:34;;;;;;;4.77;2.57;;;15.90;90.50;;;;;;6299869;28;20552;-62
2022/06/14 03:21:43;;;;;;;3.30;2.83;;;15.90;90.50;;;;;;6299992;27;20456;-62
2022/06/14 03:24:51;;;;;;;5.17;2.83;;;15.80;90.80;;;;;;6300133;28;20440;-62
2022/06/14 03:28:01;;;;;;;2.73;2.53;;;15.80;90.80;;;;;;6300270;28;20458;-63
2022/06/14 03:31:11;;;;;;;3.00;2.77;;;15.90;90.80;;;;;;6299612;28;20473;-61
2022/06/14 03:34:26;;;;;;;2.67;2.40;;;15.90;90.80;;;;;;6299777;28;20512;-62
2022/06/14 03:37:29;;;;;;;3.53;3.23;;;15.90;90.90;;;;;;6299818;28;20470;-62
2022/06/14 03:40:33;;;;;;;3.93;2.83;;;15.90;91.00;;;;;;6299952;28;20472;-62
2022/06/14 03:43:37;;;;;;;2.67;2.47;;;15.90;91.10;;;;;;6299623;28;20487;-62
2022/06/14 03:46:45;;;;;;;3.37;2.40;;;15.90;91.30;;;;;;6299834;28;20473;-61
2022/06/14 03:49:53;;;;;;;5.20;3.17;;;15.90;91.40;;;;;;6299725;28;20473;-62
2022/06/14 03:53:14;;;;;;;4.90;2.77;;;15.90;91.40;;;;;;6299612;28;20470;-62
2022/06/14 03:56:34;;;;;;;3.83;2.53;;;15.90;91.60;;;;;;6299571;27;20462;-61
2022/06/14 03:59:57;;;;;;;4.33;3.20;;;15.80;91.90;;;;;;6299541;28;20483;-62
2022/06/14 04:03:21;;;;;;;3.40;2.77;;;15.80;92.10;;;;;;6299355;28;20465;-62
2022/06/14 04:06:38;;;;;;;3.77;3.17;;;15.80;92.10;;;;;;6302804;28;20510;-62
2022/06/14 04:09:47;;;;;;;3.47;3.17;;;15.90;92.20;;;;;;6304973;28;20768;-62
2022/06/14 04:13:02;;;;;;;3.63;3.27;;;16.00;92.10;;;;;;6304331;28;20453;-62
2022/06/14 04:16:12;;;;;;;4.47;3.37;;;16.20;92.10;;;;;;6304292;28;20935;-62
2022/06/14 04:19:31;;;;;;;4.63;3.30;;;16.30;91.70;;;;;;6304184;28;20776;-62
2022/06/14 04:22:44;;;;;;;3.03;2.60;;;16.50;91.70;;;;;;6304049;28;20807;-62
2022/06/14 04:25:55;;;;;;;4.13;3.07;;;16.50;91.60;;;;;;6304388;28;20469;-62
2022/06/14 04:29:05;;;;;;;3.20;2.83;;;16.60;91.50;;;;;;6304044;28;20476;-61
2022/06/14 04:32:14;;;;;;;5.07;2.80;;;16.70;91.30;;;;;;6303917;28;20477;-61
2022/06/14 04:35:23;;;;;;;3.53;3.20;;;16.80;91.60;;;;;;6303885;28;20519;-61
2022/06/14 04:38:31;;;;;;;4.30;2.90;;;16.90;91.40;;;;;;6304157;28;20469;-61
2022/06/14 04:41:39;;;;;;;3.30;2.50;;;16.90;91.10;;;;;;6303750;28;20477;-62
2022/06/14 04:44:52;;;;;;;3.33;2.80;;;17.00;91.00;;;;;;6303182;28;20465;-63
2022/06/14 04:48:03;;;;;;;2.90;2.20;;;17.20;91.00;;;;;;6303575;28;20469;-62
2022/06/14 04:51:17;;;;;;;8.63;2.97;;;17.30;90.90;;;;;;6303587;28;20477;-61
2022/06/14 04:54:24;;;;;;;4.27;3.57;;;17.40;90.80;;;;;;6302848;28;20809;-61
2022/06/14 04:57:33;;;;;;;3.80;3.50;;;17.40;90.90;;;;;;6303957;28;20496;-61
2022/06/14 05:00:40;;;;;;;5.47;2.80;;;17.50;90.70;;;;;;6302990;28;20453;-61
2022/06/14 05:03:50;;;;;;;3.73;3.30;;;17.60;90.60;;;;;;6303151;28;20227;-61
2022/06/14 05:06:58;;;;;;;3.97;2.80;;;17.70;90.60;;;;;;6302714;28;20438;-62
2022/06/14 05:10:07;;;;;;;6.63;2.77;;;17.90;90.50;;;;;;6303218;28;20469;-61
2022/06/14 05:13:19;;;;;;;3.47;2.77;;;18.00;90.50;;;;;;6302581;28;20497;-61
2022/06/14 05:16:28;;;;;;;3.30;3.00;;;18.30;90.30;;;;;;6292930;28;20787;-60
2022/06/14 05:19:41;;;;;;;3.10;2.77;;;18.40;90.10;;;;;;6303152;28;20535;-60
2022/06/14 05:22:51;;;;;;;4.53;2.87;;;18.50;88.30;;;;;;6302706;28;20242;-60
2022/06/14 05:26:05;;;;;;;3.20;2.90;;;18.70;87.30;;;;;;6302558;28;20223;-61
2022/06/14 05:29:19;;;;;;;3.87;3.40;;;18.70;86.30;;;;;;6301192;28;20333;-61
2022/06/14 05:32:30;;;;;;;5.57;3.80;;;18.90;85.10;;;;;;6298052;28;20679;-61
2022/06/14 05:35:40;;;;;;;4.43;3.07;;;19.10;83.50;;;;;;6302336;28;20724;-61
2022/06/14 05:38:52;;;;;;;4.10;3.03;;;19.20;82.60;;;;;;6302640;28;20231;-62
2022/06/14 05:42:02;;;;;;;5.30;3.20;;;19.40;82.00;;;;;;6302225;28;20227;-62
2022/06/14 05:45:06;;;;;;;4.20;2.70;;;19.60;81.90;;;;;;6302219;28;20572;-61
2022/06/14 05:48:15;;;;;;;3.70;2.90;;;19.70;79.50;;;;;;6301966;28;20264;-62
2022/06/14 05:51:21;;;;;;;2.93;2.63;;;19.90;78.90;;;;;;6302010;28;20227;-61
2022/06/14 05:54:31;;;;;;;3.57;2.87;;;20.00;78.50;;;;;;6301717;28;20237;-61
2022/06/14 05:57:39;;;;;;;3.53;2.90;;;20.20;78.30;;;;;;6301858;28;20223;-61
2022/06/14 06:00:47;;;;;;;7.20;3.43;;;20.40;77.70;;;;;;6301248;28;20229;-61
2022/06/14 06:03:55;;;;;;;4.03;2.33;;;20.60;75.60;;;;;;6302147;28;20227;-62
2022/06/14 06:07:03;;;;;;;3.93;2.63;;;20.70;75.20;;;;;;6302517;28;20238;-61
2022/06/14 06:10:12;;;;;;;3.37;3.07;;;21.10;75.20;;;;;;6301226;28;20223;-63
2022/06/14 06:13:20;;;;;;;4.30;2.70;;;21.50;72.90;;;;;;6301037;28;20235;-63
2022/06/14 06:16:31;;;;;;;6.93;2.73;;;22.00;72.20;;;;;;6301389;28;20237;-63
2022/06/14 06:19:43;;;;;;;3.70;2.93;;;22.50;68.00;;;;;;6296405;28;20604;-63
2022/06/14 06:22:53;;;;;;;4.93;3.07;;;23.10;65.00;;;;;;6301610;28;20235;-63
2022/06/14 06:25:59;;;;;;;3.07;2.50;;;23.20;61.60;;;;;;6300962;28;20227;-62
2022/06/14 06:29:08;;;;;;;3.37;2.47;;;23.40;59.40;;;;;;6300057;28;20227;-62
2022/06/14 06:32:11;;;;;;;5.33;2.70;;;23.70;59.10;;;;;;6300632;28;20247;-62
2022/06/14 06:35:15;;;;;;;3.30;2.80;;;23.80;58.80;;;;;;6300664;28;20245;-62
2022/06/14 06:38:32;;;;;;;3.03;2.80;;;24.20;57.90;;;;;;6300481;28;20230;-62
2022/06/14 06:41:54;;;;;;;4.03;2.93;;;25.00;57.70;;;;;;6299848;28;20672;-62
2022/06/14 06:45:03;;;;;;;4.37;3.10;;;25.40;54.70;;;;;;6300068;28;20231;-62
2022/06/14 06:48:12;;;;;;;4.07;3.47;;;26.10;53.50;;;;;;6300284;28;20223;-62
2022/06/14 06:51:20;;;;;;;22.83;5.77;;;26.60;52.10;;;;;;6300411;28;20237;-62
2022/06/14 06:54:27;;;;;;;8.30;3.07;;;27.10;50.70;;;;;;6300469;28;20242;-62
2022/06/14 06:57:36;;;;;;;3.63;2.47;;;27.40;49.80;;;;;;6300302;28;20245;-62
2022/06/14 07:00:41;;;;;;;5.40;3.47;;;27.40;48.00;;;;;;6300314;28;20229;-63
2022/06/14 07:03:49;;;;;;;5.40;3.20;;;28.10;47.90;;;;;;6300548;28;20236;-63
2022/06/14 07:06:54;;;;;;;3.53;3.07;;;28.70;46.60;;;;;;6299915;28;20203;-63
2022/06/14 07:10:01;;;;;;;3.97;2.80;;;29.10;45.80;;;;;;6300146;28;20276;-64
2022/06/14 07:13:14;;;;;;;2.70;2.40;;;29.40;45.00;;;;;;6299891;28;20230;-62
2022/06/14 07:16:23;;;;;;;5.83;3.00;;;28.90;44.50;;;;;;6299769;28;20600;-63
2022/06/14 07:19:37;;;;;;;12.20;4.00;;;28.60;45.00;;;;;;6300454;28;20222;-62
2022/06/14 07:22:47;;;;;;;3.93;3.57;;;28.80;45.70;;;;;;6299836;28;20237;-62
2022/06/14 07:26:08;;;;;;;6.40;2.50;;;29.40;45.20;;;;;;6300257;28;20233;-62
2022/06/14 07:29:17;;;;;;;4.27;3.00;;;30.30;43.10;;;;;;6299894;28;20222;-62
2022/06/14 07:32:26;;;;;;;3.67;3.00;;;30.40;43.50;;;;;;6300150;28;20276;-62
2022/06/14 07:35:40;;;;;;;4.50;2.83;;;30.40;43.20;;;;;;6299853;28;20227;-62
2022/06/14 07:38:51;;;;;;;4.15;2.70;;;31.00;42.50;;;;;;6299783;28;20572;-63
2022/06/14 07:42:03;;;;;;;3.10;2.60;;;31.10;41.70;;;;;;6299680;28;20234;-63
2022/06/14 07:45:16;;;;;;;4.80;2.70;;;30.10;42.40;;;;;;6299701;28;20226;-63
2022/06/14 07:48:30;;;;;;;6.00;2.80;;;29.00;43.40;;;;;;6299516;28;20231;-62
2022/06/14 07:51:39;;;;;;;5.70;2.73;;;29.40;43.80;;;;;;6299185;28;20226;-64
2022/06/14 07:54:45;;;;;;;5.17;3.80;;;29.80;43.40;;;;;;6299313;28;20225;-63
2022/06/14 07:57:58;;;;;;;5.47;3.07;;;29.00;44.10;;;;;;6299642;28;20203;-62
2022/06/14 08:01:09;;;;;;;3.63;3.20;;;28.40;45.00;;;;;;6299539;28;20264;-62
2022/06/14 08:04:18;;;;;;;3.33;3.03;;;28.20;44.90;;;;;;6299848;28;20227;-62
2022/06/14 08:07:23;;;;;;;6.60;2.80;;;28.00;45.50;;;;;;6299324;28;20222;-63
2022/06/14 08:10:32;;;;;;;4.53;3.10;;;27.70;46.30;;;;;;6299523;28;20310;-63
2022/06/14 08:13:40;;;;;;;5.03;3.10;;;27.50;46.50;;;;;;6299674;28;20310;-63
2022/06/14 08:16:46;;;;;;;6.67;3.33;;;27.20;47.40;;;;;;6299382;28;20222;-63
2022/06/14 08:19:55;;;;;;;5.10;3.50;;;26.70;48.20;;;;;;6298857;28;20226;-63
2022/06/14 08:23:01;;;;;;;4.70;4.00;;;25.90;49.60;;;;;;6298888;28;20239;-63
2022/06/14 08:26:09;;;;;;;6.87;3.80;;;25.80;50.30;;;;;;6294374;28;20242;-63
2022/06/14 08:29:17;;;;;;;3.13;2.80;;;25.90;50.60;;;;;;6298966;28;20701;-64
2022/06/14 08:32:33;;;;;;;10.00;4.00;;;25.50;50.90;;;;;;6299211;28;20242;-63
2022/06/14 08:35:45;;;;;;;4.33;3.93;;;25.30;52.00;;;;;;6298751;28;20342;-63
2022/06/14 08:38:53;;;;;;;5.40;4.07;;;25.40;51.80;;;;;;6298771;28;20234;-63
2022/06/14 08:42:15;;;;;;;4.50;3.70;;;25.20;51.60;;;;;;6298688;28;20235;-62
2022/06/14 08:45:30;;;;;;;3.40;3.00;;;24.90;52.20;;;;;;6299001;28;20227;-63
2022/06/14 08:48:42;;;;;;;5.53;3.40;;;24.80;53.00;;;;;;6298678;28;20238;-62
2022/06/14 08:52:03;;;;;;;4.60;3.50;;;25.10;52.50;;;;;;6300994;28;20245;-62
2022/06/14 08:55:37;;;;;;;3.80;3.40;;;25.30;52.40;;;;;;6304023;28;20237;-62
2022/06/14 08:59:06;;;;;;;5.73;3.20;;;25.50;53.20;;;;;;6303176;28;20238;-63
2022/06/14 09:02:28;;;;;;;5.83;3.27;;;25.50;51.90;;;;;;6303280;28;20234;-63
2022/06/14 09:05:57;;;;;;;4.13;3.70;;;24.90;53.00;;;;;;6303480;28;20238;-63
2022/06/14 09:09:21;;;;;;;3.80;2.67;;;24.70;53.60;;;;;;6303025;28;20237;-64
2022/06/14 09:12:54;;;;;;;5.03;2.87;;;25.10;54.10;;;;;;6302961;28;20239;-64
2022/06/14 09:16:22;;;;;;;6.87;3.23;;;25.00;53.50;;;;;;6303346;28;20313;-64
2022/06/14 09:19:42;;;;;;;4.40;3.00;;;25.20;54.40;;;;;;6302609;28;20223;-62
2022/06/14 09:22:56;;;;;;;3.97;2.87;;;25.30;54.50;;;;;;6302984;28;20237;-62
2022/06/14 09:26:45;;;;;;;4.70;2.97;;;25.10;53.50;;;;;;6302558;28;20582;-62
2022/06/14 09:30:08;;;;;;;4.30;2.70;;;25.00;53.50;;;;;;6302191;28;20223;-63
2022/06/14 09:33:36;;;;;;;4.83;3.20;;;25.20;53.80;;;;;;6301934;28;20344;-63
2022/06/14 09:37:08;;;;;;;3.97;2.90;;;25.40;53.70;;;;;;6302174;28;20233;-63
2022/06/14 09:40:45;;;;;;;4.30;3.30;;;25.60;52.70;;;;;;6302538;28;20356;-63
2022/06/14 09:44:26;;;;;;;4.70;3.23;;;25.40;52.50;;;;;;6302289;28;20252;-62
2022/06/14 09:48:05;;;;;;;3.23;2.97;;;25.60;52.90;;;;;;6302552;28;20226;-63
2022/06/14 09:51:44;;;;;;;4.50;3.40;;;25.50;52.40;;;;;;6302015;28;20237;-64
2022/06/14 09:55:20;;;;;;;3.90;3.60;;;25.80;52.40;;;;;;6301508;28;20236;-62
2022/06/14 09:59:12;;;;;;;3.50;3.20;;;25.60;52.70;;;;;;6301901;28;20222;-63
2022/06/14 10:02:26;;;;;;;3.50;3.20;;;25.70;52.50;;;;;;6302520;28;20231;-63
2022/06/14 10:06:07;;;;;;;5.40;3.97;;;26.00;51.70;;;;;;6306184;28;20226;-64
2022/06/14 10:09:35;;;;;;;4.60;3.20;;;25.80;51.70;;;;;;6229578;28;20307;-63
2022/06/14 10:13:08;;;;;;;3.60;3.03;;;25.70;51.90;;;;;;6305396;28;20220;-64
2022/06/14 10:16:25;;;;;;;6.80;2.90;;;25.70;52.40;;;;;;6304371;28;20237;-63
2022/06/14 10:19:43;;;;;;;4.53;3.10;;;25.80;51.80;;;;;;6304780;28;20673;-63
2022/06/14 10:23:06;;;;;;;3.37;3.00;;;25.60;52.40;;;;;;6305391;28;20246;-63
2022/06/14 10:30:02;;;;;;;3.83;3.07;;;25.00;52.70;;;;;;6305469;28;20238;-63
2022/06/14 10:33:27;;;;;;;3.13;2.83;;;25.20;52.90;;;;;;6304997;28;20323;-63
2022/06/14 10:36:59;;;;;;;4.07;2.93;;;25.60;51.40;;;;;;6297370;28;20226;-62
2022/06/14 10:40:39;;;;;;;7.43;3.10;;;25.50;50.40;;;;;;6302065;28;20635;-63
2022/06/14 10:43:49;;;;;;;3.17;2.90;;;25.80;50.80;;;;;;6231082;28;20244;-63
2022/06/14 10:47:02;;;;;;;3.13;2.80;;;26.00;50.40;;;;;;6305105;28;20236;-64
2022/06/14 10:50:37;;;;;;;4.47;3.07;;;25.90;50.50;;;;;;6305778;28;20716;-63
2022/06/14 10:53:49;;;;;;;3.87;2.90;;;26.10;49.70;;;;;;6304060;28;20230;-64
2022/06/14 10:57:20;;;;;;;3.73;3.20;;;26.20;49.80;;;;;;6303970;28;20231;-63
2022/06/14 11:00:36;;;;;;;4.20;2.87;;;25.80;49.50;;;;;;6304055;28;20533;-63
2022/06/14 11:03:53;;;;;;;7.77;3.47;;;25.90;50.40;;;;;;6301248;28;20233;-63
2022/06/14 11:07:26;;;;;;;4.37;3.37;;;26.00;49.90;;;;;;6300352;28;20313;-63
2022/06/14 11:10:47;;;;;;;6.30;3.40;;;25.70;51.30;;;;;;6298241;28;20227;-62
2022/06/14 11:13:59;;;;;;;10.50;3.77;;;25.50;51.10;;;;;;6299944;28;20234;-62
2022/06/14 11:17:22;;;;;;;3.80;3.40;;;25.50;51.50;;;;;;6300280;28;20226;-62
2022/06/14 11:20:38;;;;;;;3.80;3.07;;;25.80;51.80;;;;;;6300281;28;20230;-63
2022/06/14 11:23:50;;;;;;;4.77;3.60;;;25.60;51.50;;;;;;6299890;28;20231;-63
2022/06/14 11:26:59;;;;;;;3.73;3.10;;;25.80;50.40;;;;;;6299728;28;20227;-63
2022/06/14 11:30:12;;;;;;;6.13;3.13;;;25.70;50.90;;;;;;6297580;28;20644;-65
2022/06/14 11:33:37;;;;;;;7.30;3.50;;;25.90;50.90;;;;;;6313391;28;20248;-64
2022/06/14 11:36:56;;;;;;;3.77;3.40;;;25.90;50.60;;;;;;6307188;28;20211;-64
2022/06/14 11:40:08;;;;;;;3.97;3.23;;;25.90;51.50;;;;;;6297933;28;20226;-63
2022/06/14 11:43:25;;;;;;;3.43;3.10;;;25.90;50.70;;;;;;6298044;28;20279;-63
2022/06/14 11:46:40;;;;;;;4.00;2.70;;;26.20;50.50;;;;;;6298303;28;20359;-64
2022/06/14 11:49:52;;;;;;;3.73;2.80;;;26.30;50.00;;;;;;6299105;28;20233;-64
2022/06/14 11:53:12;;;;;;;4.03;3.63;;;26.40;49.90;;;;;;6299523;28;20226;-63
2022/06/14 11:56:27;;;;;;;4.13;3.57;;;26.20;48.80;;;;;;6299534;28;20688;-63
2022/06/14 11:59:58;;;;;;;3.60;3.20;;;26.30;49.70;;;;;;6299492;28;20234;-65
2022/06/14 12:03:13;;;;;;;6.20;3.30;;;26.60;49.30;;;;;;6299316;28;20691;-63
2022/06/14 12:06:27;;;;;;;5.93;3.43;;;26.70;48.90;;;;;;6299657;28;20809;-64
2022/06/14 12:10:13;;;;;;;4.23;3.57;;;26.40;49.40;;;;;;6298998;28;20306;-65
2022/06/14 12:13:41;;;;;;;3.40;3.10;;;25.90;49.60;;;;;;6299081;28;20226;-63
2022/06/14 12:16:48;;;;;;;6.70;3.43;;;25.80;50.60;;;;;;6299658;28;20237;-63
2022/06/14 12:19:55;;;;;;;4.77;3.70;;;26.10;50.40;;;;;;6299071;28;20279;-65
2022/06/14 12:23:07;;;;;;;4.00;3.30;;;26.20;49.70;;;;;;6298894;28;20256;-63
2022/06/14 12:29:40;;;;;;;3.60;3.30;;;26.30;49.80;;;;;;6303691;28;20226;-64
2022/06/14 12:32:49;;;;;;;5.87;3.70;;;26.10;49.30;;;;;;6303769;28;20245;-63
2022/06/14 12:36:02;;;;;;;3.50;3.10;;;26.20;49.80;;;;;;6303699;28;20234;-63
2022/06/14 12:39:11;;;;;;;3.93;3.30;;;26.40;49.70;;;;;;6303705;28;20245;-63
2022/06/14 12:42:22;;;;;;;7.07;3.50;;;26.50;49.70;;;;;;6299013;28;20244;-62
2022/06/14 12:45:30;;;;;;;7.13;3.80;;;26.40;50.80;;;;;;6303715;28;20572;-64
2022/06/14 12:48:40;;;;;;;3.53;3.13;;;26.20;49.60;;;;;;6301176;28;20232;-63
2022/06/14 12:51:50;;;;;;;4.13;3.73;;;26.10;49.70;;;;;;6303382;28;20219;-64
2022/06/14 12:54:59;;;;;;;5.50;3.30;;;26.10;49.60;;;;;;6302915;28;20201;-64
2022/06/14 12:58:14;;;;;;;5.17;3.47;;;26.30;49.80;;;;;;6302792;28;20222;-64
2022/06/14 13:01:40;;;;;;;4.40;4.00;;;26.20;48.80;;;;;;6303138;28;20664;-64
2022/06/14 13:04:47;;;;;;;6.57;3.40;;;26.40;49.40;;;;;;6303048;28;20234;-63
2022/06/14 13:08:06;;;;;;;4.10;3.70;;;26.40;49.50;;;;;;6302921;28;20660;-64
2022/06/14 13:11:18;;;;;;;4.10;3.40;;;26.40;49.70;;;;;;6303205;28;20245;-64
2022/06/14 13:14:24;;;;;;;5.57;3.00;;;26.50;50.00;;;;;;6302871;28;20231;-64
2022/06/14 13:17:49;;;;;;;3.50;3.20;;;26.50;49.50;;;;;;6303305;28;20566;-64
2022/06/14 13:20:57;;;;;;;4.20;3.80;;;26.30;50.10;;;;;;6302664;28;20268;-64
2022/06/14 13:24:14;;;;;;;5.23;3.43;;;26.20;50.30;;;;;;6302376;28;20252;-64
2022/06/14 13:27:30;;;;;;;3.70;3.37;;;25.90;50.20;;;;;;6302599;28;20222;-64
2022/06/14 13:30:42;;;;;;;3.80;3.50;;;26.10;49.70;;;;;;6302205;28;20238;-64
2022/06/14 13:33:56;;;;;;;3.87;3.40;;;26.20;49.70;;;;;;6300833;28;20572;-63
2022/06/14 13:37:16;;;;;;;3.90;3.43;;;26.20;49.20;;;;;;6300941;28;20233;-63
2022/06/14 13:40:25;;;;;;;4.87;3.67;;;26.40;49.50;;;;;;6300747;28;20230;-64
2022/06/14 13:43:34;;;;;;;4.17;3.63;;;26.30;49.90;;;;;;6300920;28;20226;-64
2022/06/14 13:46:46;;;;;;;4.37;3.30;;;26.40;49.90;;;;;;6289391;28;20229;-63
2022/06/14 13:49:59;;;;;;;4.17;3.43;;;26.00;50.20;;;;;;6298468;28;20680;-64
2022/06/14 13:53:09;;;;;;;3.80;3.50;;;26.10;50.80;;;;;;6300923;28;20230;-63
2022/06/14 13:56:21;;;;;;;3.60;3.30;;;26.10;50.50;;;;;;6301480;28;20237;-64
2022/06/14 13:59:26;;;;;;;5.07;3.20;;;26.00;49.70;;;;;;6300316;28;20241;-63
2022/06/14 14:02:37;;;;;;;5.50;4.00;;;26.20;49.80;;;;;;6300292;28;20238;-63
2022/06/14 14:05:50;;;;;;;5.47;3.10;;;26.30;49.80;;;;;;6300274;28;20243;-64
2022/06/14 14:09:09;;;;;;;3.53;3.00;;;26.30;49.60;;;;;;6300507;28;20242;-63
2022/06/14 14:12:17;;;;;;;3.37;3.13;;;26.60;50.00;;;;;;6300230;28;20230;-63
2022/06/14 14:15:30;;;;;;;3.60;3.30;;;26.70;49.70;;;;;;6300509;28;20286;-64
2022/06/14 14:18:47;;;;;;;4.47;3.57;;;27.00;49.60;;;;;;6300093;28;20336;-64
2022/06/14 14:21:57;;;;;;;4.10;3.10;;;27.10;49.10;;;;;;6300341;28;20218;-63
2022/06/14 14:25:07;;;;;;;4.37;3.40;;;27.30;49.00;;;;;;6300423;28;20244;-63
2022/06/14 14:28:21;;;;;;;4.50;3.33;;;27.40;49.00;;;;;;6299888;28;20550;-64
2022/06/14 14:34:54;;;;;;;3.73;3.40;;;27.60;48.60;;;;;;6368705;27;21089;-64
2022/06/14 14:38:05;;;;;;;5.43;3.70;;;27.80;48.50;;;;;;6321447;28;20222;-65
2022/06/14 14:41:37;;;;;;;3.90;3.60;;;27.80;47.80;;;;;;6334418;28;20221;-64
2022/06/14 14:44:44;;;;;;;3.97;3.57;;;27.50;48.90;;;;;;6321012;28;20323;-63
2022/06/14 14:47:53;;;;;;;4.13;3.83;;;27.40;49.20;;;;;;6321298;28;20218;-66
2022/06/14 14:51:07;;;;;;;4.83;3.33;;;27.30;49.60;;;;;;6316222;28;20226;-64
2022/06/14 14:54:17;;;;;;;4.20;3.90;;;27.50;49.90;;;;;;6319457;28;20248;-65
2022/06/14 14:57:34;;;;;;;3.70;3.40;;;27.40;49.30;;;;;;6320812;28;20226;-64
2022/06/14 15:07:52;;;;;;;3.47;3.17;;;26.80;50.50;;;;;;6320816;28;20297;-65
2022/06/14 15:11:02;;;;;;;2.93;2.73;;;26.70;51.60;;;;;;6320721;27;20558;-65
2022/06/14 15:14:17;;;;;;;4.67;4.27;;;26.60;51.90;;;;;;6320584;28;20237;-64
2022/06/14 15:20:50;;;;;;;4.03;3.73;;;26.40;51.70;;;;;;6322060;28;20222;-62
2022/06/14 15:24:00;;;;;;;3.70;3.50;;;26.30;52.20;;;;;;6345451;28;20236;-63
2022/06/14 15:27:06;;;;;;;3.63;3.33;;;25.70;53.40;;;;;;6344217;28;20554;-63
2022/06/14 15:30:12;;;;;;;3.27;2.90;;;25.80;53.50;;;;;;6345569;28;20221;-62
2022/06/14 15:33:34;;;;;;;3.63;3.23;;;25.80;53.00;;;;;;6344992;28;20233;-63
2022/06/14 15:36:38;;;;;;;3.63;3.33;;;26.20;52.80;;;;;;6345453;28;20661;-63
2022/06/14 15:39:49;;;;;;;4.33;3.30;;;26.50;52.20;;;;;;6344831;27;20653;-63
2022/06/14 15:42:57;;;;;;;3.53;3.23;;;26.70;52.20;;;;;;6345351;28;20213;-63
2022/06/14 15:46:01;;;;;;;5.43;3.70;;;26.80;52.10;;;;;;6329233;28;20226;-63
2022/06/14 15:49:14;;;;;;;3.70;3.40;;;26.70;51.60;;;;;;6328292;28;20240;-63
2022/06/14 15:52:20;;;;;;;13.43;4.20;;;26.20;53.20;;;;;;6328483;28;20237;-62
2022/06/14 15:55:29;;;;;;;4.17;3.77;;;25.90;53.30;;;;;;6323932;28;20229;-63
2022/06/14 15:58:37;;;;;;;3.90;3.50;;;25.90;54.30;;;;;;6328020;28;20241;-63
2022/06/14 16:01:42;;;;;;;5.50;4.50;;;26.10;55.20;;;;;;6328153;28;20226;-63
2022/06/14 16:04:52;;;;;;;4.03;3.73;;;26.20;56.30;;;;;;6328077;28;20648;-63
2022/06/14 16:07:59;;;;;;;4.03;3.57;;;26.20;55.80;;;;;;6327484;28;20304;-63
2022/06/14 16:11:07;;;;;;;4.50;4.10;;;26.10;54.20;;;;;;6327712;28;20225;-64
2022/06/14 16:14:12;;;;;;;4.03;3.60;;;26.10;55.10;;;;;;6326998;28;20685;-63
2022/06/14 16:17:19;;;;;;;5.03;3.50;;;25.90;56.10;;;;;;6328121;28;20674;-63
2022/06/14 16:20:30;;;;;;;5.30;4.23;;;25.90;56.70;;;;;;6328202;28;20693;-63
2022/06/14 16:23:35;;;;;;;4.20;3.83;;;25.80;57.60;;;;;;6329244;28;20237;-64
2022/06/14 16:26:46;;;;;;;4.20;3.83;;;25.80;56.90;;;;;;6328794;28;20230;-64
2022/06/14 16:30:03;;;;;;;23.37;21.37;;;25.70;56.70;;;;;;6327568;28;20226;-64
2022/06/14 16:33:14;;;;;;;4.47;4.17;;;25.60;56.30;;;;;;6312448;28;20546;-63
2022/06/14 16:36:24;;;;;;;4.77;4.30;;;25.50;57.30;;;;;;6315590;28;20567;-62
2022/06/14 16:39:37;;;;;;;3.60;3.17;;;25.20;58.10;;;;;;6307521;28;20219;-62
2022/06/14 16:42:54;;;;;;;3.30;3.00;;;25.00;58.40;;;;;;6300793;28;20231;-63
2022/06/14 16:46:05;;;;;;;5.97;3.53;;;25.10;59.00;;;;;;6276454;28;20604;-63
2022/06/14 16:49:22;;;;;;;3.60;3.30;;;25.20;58.80;;;;;;6276859;28;20583;-62
2022/06/14 16:52:31;;;;;;;5.10;3.90;;;25.30;58.90;;;;;;6283131;28;20231;-62
2022/06/14 16:55:45;;;;;;;4.10;3.70;;;25.30;58.20;;;;;;6301278;28;20235;-62
2022/06/14 16:58:57;;;;;;;4.77;4.27;;;25.50;58.30;;;;;;6292166;28;20242;-62
2022/06/14 17:02:23;;;;;;;5.13;4.50;;;25.50;58.00;;;;;;6301110;28;20235;-64
2022/06/14 17:05:33;;;;;;;4.27;3.43;;;25.30;57.90;;;;;;6300975;28;20678;-61
2022/06/14 17:08:47;;;;;;;7.20;4.07;;;25.30;58.40;;;;;;6314296;28;20225;-61